Hatsu Excel — VSXV3 — position and weather

sailwx.info

Track history (hours):
 
Tides and Currents Weather Stations Pressure Air Temp Water Temp Dewpoint Dewpoint Depression Visibility Wind Speed Wind Dir Waves Ship Positions

Hatsu Excel

Last reported at 2015-Jul-31 06:00 UTC. Time now 2015-Jul-31 11:21 UTC.
Position N 48°30' W 129°18'.

Type: Ship (hazmat cat A). MMSI: 235479000.

Wind from 330 at 20 knots

Waves 2.0 meters (7 feet), 5 second period

Barometer 1023.0 mb
Air temperature 18.5 ° C
Visibility: greater than 10.8 NM
Dewpoint 17.0 ° C
Water temperature 16.0 ° C

Date/timePositionNaut miles runAvg speedWind from/ knotsBaromVisibWave heightAir tempDewpointWater temp
2015-Jul-31 06:00N 48°30' W 129°18'4818.6 330 / 201023.010.8 2.018.517.016.0
2015-Jul-31 03:26N 48°31' W 128°06'1820.6
2015-Jul-31 02:34N 48°31' W 127°39'2120.3
2015-Jul-31 01:33N 48°31' W 127°08'2020.1
2015-Jul-31 00:33N 48°31' W 126°38'2019.9
2015-Jul-30 23:34N 48°31' W 126°08'2020.1
2015-Jul-30 22:33N 48°31' W 125°37'2020.0
2015-Jul-30 21:33N 48°31' W 125°07'2019.7
2015-Jul-30 20:33N 48°29' W 124°38'2020.1
2015-Jul-30 19:33N 48°21' W 124°10'2019.7
2015-Jul-30 18:32N 48°16' W 123°40'1514.9
2015-Jul-30 17:33N 48°08' W 123°22'1918.9
2015-Jul-30 16:33N 48°12' W 122°54'2221.9
2015-Jul-30 15:33N 47°57' W 122°31'1919.3
2015-Jul-30 14:34N 47°37' W 122°27'1515.2
2015-Jul-30 13:33N 47°23' W 122°22'7 6.8
2015-Jul-30 12:33N 47°16' W 122°24'1 0.2
2015-Jul-30 07:18N 47°15' W 122°23'0 0.0
2015-Jul-29 15:21N 47°15' W 122°23'0 0.0
2015-Jul-29 14:12N 47°15' W 122°23'0 0.0
2015-Jul-29 11:30N 47°15' W 122°23'0 0.0
2015-Jul-29 05:30N 47°15' W 122°23'0 0.0
2015-Jul-29 04:12N 47°15' W 122°23'0 0.0
2015-Jul-28 21:06N 47°15' W 122°23'0 0.0
2015-Jul-28 20:24N 47°15' W 122°23'0 0.0
2015-Jul-28 19:20N 47°15' W 122°23'2 3.1
2015-Jul-28 18:33N 47°17' W 122°25'8 7.7
2015-Jul-28 17:33N 47°24' W 122°23'1716.6
2015-Jul-28 16:34N 47°41' W 122°28'1717.0
2015-Jul-28 15:33N 47°57' W 122°34'1716.5
2015-Jul-28 14:32N 48°11' W 122°49'1616.4
2015-Jul-28 13:32N 48°11' W 123°14'1010.0
2015-Jul-28 12:34N 48°11' W 123°28'9 8.5
2015-Jul-28 11:34N 48°20' W 123°27'1211.8
2015-Jul-28 10:33N 48°26' W 123°12'1818.0
2015-Jul-28 09:33N 48°44' W 123°09'1414.0
2015-Jul-28 08:33N 48°58' W 123°15'1717.0
2015-Jul-28 07:33N 49°14' W 123°22'1110.9
2015-Jul-28 06:33N 49°18' W 123°06'1 1.1
2015-Jul-28 05:31N 49°17' W 123°05'0 0.0
2015-Jul-28 04:31N 49°17' W 123°05'0 0.0
2015-Jul-28 03:31N 49°17' W 123°05'0 0.0
2015-Jul-28 02:31N 49°17' W 123°05'0 0.0
2015-Jul-28 01:31N 49°17' W 123°05'0 0.0
2015-Jul-28 00:31N 49°17' W 123°05'0 0.0
2015-Jul-27 23:31N 49°17' W 123°05'0 0.0
2015-Jul-27 22:31N 49°17' W 123°05'0 0.0
2015-Jul-27 21:31N 49°17' W 123°05'0 0.0
2015-Jul-27 20:31N 49°17' W 123°05'0 0.0
2015-Jul-27 19:31N 49°17' W 123°05'0 0.0
2015-Jul-27 18:31N 49°17' W 123°05'0 0.0
2015-Jul-27 17:31N 49°17' W 123°05'0 0.0
2015-Jul-27 16:31N 49°17' W 123°05'0 0.0
2015-Jul-27 15:31N 49°17' W 123°05'0 0.0
2015-Jul-27 14:31N 49°17' W 123°05'0 0.0
2015-Jul-27 13:31N 49°17' W 123°05'0 0.0
2015-Jul-27 12:31N 49°17' W 123°05'0 0.0
2015-Jul-27 11:31N 49°17' W 123°05'0 0.0
2015-Jul-27 10:31N 49°17' W 123°05'0 0.0
2015-Jul-27 09:31N 49°17' W 123°05'0 0.0
2015-Jul-27 08:31N 49°17' W 123°05'0 0.0
2015-Jul-27 07:31N 49°17' W 123°05'0 0.0
2015-Jul-27 06:31N 49°17' W 123°05'0 0.0
2015-Jul-27 05:31N 49°17' W 123°05'0 0.0
2015-Jul-27 04:31N 49°17' W 123°05'0 0.0
2015-Jul-27 03:31N 49°17' W 123°05'0 0.0
2015-Jul-27 02:31N 49°17' W 123°05'0 0.0
2015-Jul-27 01:31N 49°17' W 123°05'0 0.0
2015-Jul-27 00:31N 49°17' W 123°05'0 0.0
2015-Jul-26 23:31N 49°17' W 123°05'0 0.0
2015-Jul-26 22:31N 49°17' W 123°05'0 0.0
2015-Jul-26 21:31N 49°17' W 123°05'1 1.2
2015-Jul-26 20:34N 49°18' W 123°06'1111.4
2015-Jul-26 19:34N 49°12' W 123°21'1818.2
2015-Jul-26 18:34N 48°56' W 123°08'1414.1
2015-Jul-26 17:33N 48°42' W 123°13'1717.1
2015-Jul-26 16:34N 48°25' W 123°10'1312.7
2015-Jul-26 15:33N 48°17' W 123°26'1616.2
2015-Jul-26 14:33N 48°13' W 123°49'1818.3
2015-Jul-26 13:33N 48°20' W 124°15'1817.7
2015-Jul-26 12:33N 48°27' W 124°39'1818.0
2015-Jul-26 11:33N 48°28' W 125°06'1918.7
2015-Jul-26 10:33N 48°29' W 125°35'1818.4
2015-Jul-26 09:33N 48°28' W 126°02'1818.3
2015-Jul-26 08:33N 48°28' W 126°30'73619.1
2015-Jul-24 18:00N 50°48' W 145°06'48020.0 290 / 201020.0 5.4 2.015.014.213.0
2015-Jul-23 18:00N 51°42' W 157°48'24920.8 270 / 251024.0 5.4 3.013.013.011.0
2015-Jul-23 06:00N 51°36' W 164°30'48520.2 260 / 221024.0 5.4 3.016.514.913.0
2015-Jul-22 06:00N 50°24' W 177°12'   240 / 191018.0 5.4 2.015.514.713.0
Track history (hours):
 
Tides and Currents Weather Stations Pressure Air Temp Water Temp Dewpoint Dewpoint Depression Visibility Wind Speed Wind Dir Waves Ship Positions

Hatsu Excel

Last reported at 2015-Jul-31 06:00 UTC. Time now 2015-Jul-31 11:21 UTC.
Position N 48°30' W 129°18'.

Type: Ship (hazmat cat A). MMSI: 235479000.

Wind from 330 at 20 knots

Waves 2.0 meters (7 feet), 5 second period

Barometer 1023.0 mb
Air temperature 18.5 ° C
Visibility: greater than 10.8 NM
Dewpoint 17.0 ° C
Water temperature 16.0 ° C

Date/timePositionNaut miles runAvg speedWind from/ knotsBaromVisibWave heightAir tempDewpointWater temp
2015-Jul-31 06:00N 48°30' W 129°18'4818.6 330 / 201023.010.8 2.018.517.016.0
2015-Jul-31 03:26N 48°31' W 128°06'1820.6
2015-Jul-31 02:34N 48°31' W 127°39'2120.3
2015-Jul-31 01:33N 48°31' W 127°08'2020.1
2015-Jul-31 00:33N 48°31' W 126°38'2019.9
2015-Jul-30 23:34N 48°31' W 126°08'2020.1
2015-Jul-30 22:33N 48°31' W 125°37'2020.0
2015-Jul-30 21:33N 48°31' W 125°07'2019.7
2015-Jul-30 20:33N 48°29' W 124°38'2020.1
2015-Jul-30 19:33N 48°21' W 124°10'2019.7
2015-Jul-30 18:32N 48°16' W 123°40'1514.9
2015-Jul-30 17:33N 48°08' W 123°22'1918.9
2015-Jul-30 16:33N 48°12' W 122°54'2221.9
2015-Jul-30 15:33N 47°57' W 122°31'1919.3
2015-Jul-30 14:34N 47°37' W 122°27'1515.2
2015-Jul-30 13:33N 47°23' W 122°22'7 6.8
2015-Jul-30 12:33N 47°16' W 122°24'1 0.2
2015-Jul-30 07:18N 47°15' W 122°23'0 0.0
2015-Jul-29 15:21N 47°15' W 122°23'0 0.0
2015-Jul-29 14:12N 47°15' W 122°23'0 0.0
2015-Jul-29 11:30N 47°15' W 122°23'0 0.0
2015-Jul-29 05:30N 47°15' W 122°23'0 0.0
2015-Jul-29 04:12N 47°15' W 122°23'0 0.0
2015-Jul-28 21:06N 47°15' W 122°23'0 0.0
2015-Jul-28 20:24N 47°15' W 122°23'0 0.0
2015-Jul-28 19:20N 47°15' W 122°23'2 3.1
2015-Jul-28 18:33N 47°17' W 122°25'8 7.7
2015-Jul-28 17:33N 47°24' W 122°23'1716.6
2015-Jul-28 16:34N 47°41' W 122°28'1717.0
2015-Jul-28 15:33N 47°57' W 122°34'1716.5
2015-Jul-28 14:32N 48°11' W 122°49'1616.4
2015-Jul-28 13:32N 48°11' W 123°14'1010.0
2015-Jul-28 12:34N 48°11' W 123°28'9 8.5
2015-Jul-28 11:34N 48°20' W 123°27'1211.8
2015-Jul-28 10:33N 48°26' W 123°12'1818.0
2015-Jul-28 09:33N 48°44' W 123°09'1414.0
2015-Jul-28 08:33N 48°58' W 123°15'1717.0
2015-Jul-28 07:33N 49°14' W 123°22'1110.9
2015-Jul-28 06:33N 49°18' W 123°06'1 1.1
2015-Jul-28 05:31N 49°17' W 123°05'0 0.0
2015-Jul-28 04:31N 49°17' W 123°05'0 0.0
2015-Jul-28 03:31N 49°17' W 123°05'0 0.0
2015-Jul-28 02:31N 49°17' W 123°05'0 0.0
2015-Jul-28 01:31N 49°17' W 123°05'0 0.0
2015-Jul-28 00:31N 49°17' W 123°05'0 0.0
2015-Jul-27 23:31N 49°17' W 123°05'0 0.0
2015-Jul-27 22:31N 49°17' W 123°05'0 0.0
2015-Jul-27 21:31N 49°17' W 123°05'0 0.0
2015-Jul-27 20:31N 49°17' W 123°05'0 0.0
2015-Jul-27 19:31N 49°17' W 123°05'0 0.0
2015-Jul-27 18:31N 49°17' W 123°05'0 0.0
2015-Jul-27 17:31N 49°17' W 123°05'0 0.0
2015-Jul-27 16:31N 49°17' W 123°05'0 0.0
2015-Jul-27 15:31N 49°17' W 123°05'0 0.0
2015-Jul-27 14:31N 49°17' W 123°05'0 0.0
2015-Jul-27 13:31N 49°17' W 123°05'0 0.0
2015-Jul-27 12:31N 49°17' W 123°05'0 0.0
2015-Jul-27 11:31N 49°17' W 123°05'0 0.0
2015-Jul-27 10:31N 49°17' W 123°05'0 0.0
2015-Jul-27 09:31N 49°17' W 123°05'0 0.0
2015-Jul-27 08:31N 49°17' W 123°05'0 0.0
2015-Jul-27 07:31N 49°17' W 123°05'0 0.0
2015-Jul-27 06:31N 49°17' W 123°05'0 0.0
2015-Jul-27 05:31N 49°17' W 123°05'0 0.0
2015-Jul-27 04:31N 49°17' W 123°05'0 0.0
2015-Jul-27 03:31N 49°17' W 123°05'0 0.0
2015-Jul-27 02:31N 49°17' W 123°05'0 0.0
2015-Jul-27 01:31N 49°17' W 123°05'0 0.0
2015-Jul-27 00:31N 49°17' W 123°05'0 0.0
2015-Jul-26 23:31N 49°17' W 123°05'0 0.0
2015-Jul-26 22:31N 49°17' W 123°05'0 0.0
2015-Jul-26 21:31N 49°17' W 123°05'1 1.2
2015-Jul-26 20:34N 49°18' W 123°06'1111.4
2015-Jul-26 19:34N 49°12' W 123°21'1818.2
2015-Jul-26 18:34N 48°56' W 123°08'1414.1
2015-Jul-26 17:33N 48°42' W 123°13'1717.1
2015-Jul-26 16:34N 48°25' W 123°10'1312.7
2015-Jul-26 15:33N 48°17' W 123°26'1616.2
2015-Jul-26 14:33N 48°13' W 123°49'1818.3
2015-Jul-26 13:33N 48°20' W 124°15'1817.7
2015-Jul-26 12:33N 48°27' W 124°39'1818.0
2015-Jul-26 11:33N 48°28' W 125°06'1918.7
2015-Jul-26 10:33N 48°29' W 125°35'1818.4
2015-Jul-26 09:33N 48°28' W 126°02'1818.3
2015-Jul-26 08:33N 48°28' W 126°30'73619.1
2015-Jul-24 18:00N 50°48' W 145°06'48020.0 290 / 201020.0 5.4 2.015.014.213.0
2015-Jul-23 18:00N 51°42' W 157°48'24920.8 270 / 251024.0 5.4 3.013.013.011.0
2015-Jul-23 06:00N 51°36' W 164°30'48520.2 260 / 221024.0 5.4 3.016.514.913.0
2015-Jul-22 06:00N 50°24' W 177°12'   240 / 191018.0 5.4 2.015.514.713.0

Dump ship's entire track history